createdAt,value
2019-05-23T00:00:49.152Z,32.60
2019-05-23T00:03:22.484Z,29.80
2019-05-23T00:05:55.759Z,32.20
2019-05-23T00:08:30.496Z,28.60
2019-05-23T00:11:05.745Z,27.00
2019-05-23T00:13:39.440Z,28.80
2019-05-23T00:16:14.040Z,36.40
2019-05-23T00:18:47.665Z,32.60
2019-05-23T00:21:21.018Z,32.40
2019-05-23T00:23:54.933Z,30.40
2019-05-23T00:26:27.968Z,32.40
2019-05-23T00:29:10.105Z,36.40
2019-05-23T00:31:36.084Z,27.60
2019-05-23T00:34:09.871Z,32.20
2019-05-23T00:36:42.851Z,32.40
2019-05-23T00:39:15.777Z,26.80
2019-05-23T00:41:48.902Z,30.40
2019-05-23T00:44:23.432Z,34.20
2019-05-23T00:46:56.400Z,30.80
2019-05-23T00:49:29.462Z,31.20
2019-05-23T00:52:02.366Z,29.80
2019-05-23T00:54:35.275Z,29.00
2019-05-23T00:57:08.596Z,26.40
2019-05-23T00:59:41.578Z,27.00
2019-05-23T01:02:14.590Z,26.60
2019-05-23T01:04:47.889Z,31.00
2019-05-23T01:07:21.252Z,31.00
2019-05-23T01:09:54.267Z,30.60
2019-05-23T01:12:27.156Z,28.40
2019-05-23T01:15:01.189Z,25.80
2019-05-23T01:17:34.250Z,28.00
2019-05-23T01:20:08.681Z,22.00
2019-05-23T01:22:42.588Z,27.20
2019-05-23T01:25:18.757Z,29.20
2019-05-23T01:27:51.749Z,27.60
2019-05-23T01:30:24.614Z,24.00
2019-05-23T01:32:57.999Z,29.20
2019-05-23T01:35:31.357Z,28.40
2019-05-23T01:38:04.532Z,29.60
2019-05-23T01:40:38.412Z,26.20
2019-05-23T01:43:11.463Z,31.20
2019-05-23T01:45:45.184Z,31.40
2019-05-23T01:48:18.108Z,26.20
2019-05-23T01:50:51.647Z,24.40
2019-05-23T01:53:24.564Z,26.60
2019-05-23T01:55:57.543Z,29.20
2019-05-23T01:58:30.407Z,26.40
2019-05-23T02:01:03.497Z,28.40
2019-05-23T02:03:36.813Z,32.60
2019-05-23T02:06:10.234Z,27.00
2019-05-23T02:08:43.400Z,27.80
2019-05-23T02:11:18.276Z,29.00
2019-05-23T02:13:51.141Z,29.20
2019-05-23T02:16:24.219Z,28.20
2019-05-23T02:18:57.600Z,31.00
2019-05-23T02:21:30.500Z,29.20
2019-05-23T02:24:04.076Z,29.20
2019-05-23T02:26:37.509Z,25.00
2019-05-23T02:29:10.389Z,26.00
2019-05-23T02:31:43.415Z,22.80
2019-05-23T02:34:16.277Z,25.60
2019-05-23T02:36:49.545Z,28.40
2019-05-23T02:39:22.828Z,26.20
2019-05-23T02:41:55.848Z,26.80
2019-05-23T02:44:29.049Z,25.40
2019-05-23T02:47:02.579Z,30.60
2019-05-23T02:49:36.610Z,27.20
2019-05-23T02:52:46.355Z,27.20
2019-05-23T02:55:27.417Z,24.00
2019-05-23T02:58:09.117Z,30.40
2019-05-23T03:00:54.645Z,26.40
2019-05-23T03:03:29.780Z,26.80
2019-05-23T03:06:03.668Z,27.20
2019-05-23T03:08:36.828Z,23.60
2019-05-23T03:11:30.621Z,27.60
2019-05-23T03:14:04.591Z,26.20
2019-05-23T03:16:39.685Z,31.80
2019-05-23T03:19:21.653Z,31.60
2019-05-23T03:21:56.087Z,27.00
2019-05-23T03:24:30.720Z,27.60
2019-05-23T03:27:03.680Z,30.20
2019-05-23T03:29:37.758Z,28.40
2019-05-23T03:32:11.415Z,28.00
2019-05-23T03:34:45.049Z,26.80
2019-05-23T03:37:18.448Z,33.80
2019-05-23T03:39:51.933Z,30.00
2019-05-23T03:42:25.084Z,31.00
2019-05-23T03:44:58.585Z,27.60
2019-05-23T03:47:31.557Z,28.40
2019-05-23T03:50:04.837Z,25.80
2019-05-23T03:52:37.721Z,30.40
2019-05-23T03:55:10.740Z,23.80
2019-05-23T03:57:44.078Z,28.00
2019-05-23T04:00:17.218Z,29.80
2019-05-23T04:02:50.278Z,29.20
2019-05-23T04:05:23.239Z,28.00
2019-05-23T04:07:56.125Z,28.60
2019-05-23T04:10:29.725Z,25.60
2019-05-23T04:13:02.966Z,28.80
2019-05-23T04:15:36.396Z,31.20
2019-05-23T04:18:09.423Z,32.60
2019-05-23T04:20:43.156Z,29.20
2019-05-23T04:23:16.857Z,29.60
2019-05-23T04:25:49.913Z,28.80
2019-05-23T04:28:22.861Z,23.80
2019-05-23T04:30:55.730Z,29.20
2019-05-23T04:33:28.861Z,27.60
2019-05-23T04:36:01.898Z,25.40
2019-05-23T04:38:36.433Z,29.40
2019-05-23T04:41:10.237Z,26.40
2019-05-23T04:43:43.185Z,26.60
2019-05-23T04:46:16.298Z,27.60
2019-05-23T04:48:49.700Z,22.60
2019-05-23T04:51:22.681Z,25.20
2019-05-23T04:53:55.727Z,22.80
2019-05-23T04:56:28.612Z,29.00
2019-05-23T04:59:02.679Z,25.00
2019-05-23T05:01:36.223Z,25.40
2019-05-23T05:04:09.399Z,27.60
2019-05-23T05:06:42.992Z,22.00
2019-05-23T05:09:16.260Z,25.80
2019-05-23T05:11:49.313Z,23.40
2019-05-23T05:14:22.259Z,22.80
2019-05-23T05:16:55.233Z,21.40
2019-05-23T05:19:28.558Z,24.60
2019-05-23T05:22:02.046Z,23.60
2019-05-23T05:24:39.380Z,19.80
2019-05-23T05:27:09.712Z,24.60
2019-05-23T05:29:42.658Z,20.20
2019-05-23T05:32:16.229Z,19.00
2019-05-23T05:34:49.479Z,22.00
2019-05-23T05:37:22.437Z,20.00
2019-05-23T05:39:55.957Z,20.00
2019-05-23T05:42:28.830Z,22.60
2019-05-23T05:45:01.898Z,20.40
2019-05-23T05:47:34.875Z,19.40
2019-05-23T05:50:10.674Z,23.80
2019-05-23T05:52:43.622Z,23.00
2019-05-23T05:55:16.541Z,22.40
2019-05-23T05:57:49.508Z,22.40
2019-05-23T06:00:23.331Z,14.00
2019-05-23T06:03:04.404Z,23.00
2019-05-23T06:05:31.406Z,17.60
2019-05-23T06:08:04.786Z,12.40
2019-05-23T06:10:37.856Z,25.40
2019-05-23T06:13:11.135Z,24.20
2019-05-23T06:15:44.410Z,23.80
2019-05-23T06:18:17.351Z,20.60
2019-05-23T06:20:50.395Z,25.20
2019-05-23T06:23:23.535Z,22.20
2019-05-23T06:25:56.479Z,22.60
2019-05-23T06:28:30.676Z,22.60
2019-05-23T06:31:03.810Z,24.00
2019-05-23T06:33:36.756Z,20.40
2019-05-23T06:36:09.710Z,19.00
2019-05-23T06:38:43.187Z,17.40
2019-05-23T06:41:16.605Z,19.00
2019-05-23T06:43:49.495Z,17.00
2019-05-23T06:46:22.665Z,18.80
2019-05-23T06:48:55.721Z,17.80
2019-05-23T06:51:28.665Z,26.60
2019-05-23T06:54:01.691Z,17.80
2019-05-23T06:56:34.602Z,17.20
2019-05-23T06:59:07.736Z,18.60
2019-05-23T07:01:40.709Z,16.40
2019-05-23T07:04:13.954Z,17.00
2019-05-23T07:06:47.700Z,19.40
2019-05-23T07:09:21.417Z,18.20
2019-05-23T07:11:57.670Z,17.20
2019-05-23T07:14:30.546Z,20.40
2019-05-23T07:17:03.542Z,20.60
2019-05-23T07:19:36.791Z,17.20
2019-05-23T07:22:11.455Z,11.60
2019-05-23T07:24:57.474Z,16.80
2019-05-23T07:27:20.219Z,14.00
2019-05-23T07:29:53.426Z,13.60
2019-05-23T07:32:26.393Z,14.40
2019-05-23T07:34:59.466Z,14.00
2019-05-23T07:37:32.698Z,12.00
2019-05-23T07:40:06.055Z,13.00
2019-05-23T07:42:39.032Z,13.40
2019-05-23T07:45:12.646Z,17.00
2019-05-23T07:47:45.927Z,14.00
2019-05-23T07:50:19.101Z,12.80
2019-05-23T07:52:52.610Z,1.60
2019-05-23T07:55:25.606Z,12.00
2019-05-23T07:57:58.511Z,12.80
2019-05-23T08:00:31.513Z,12.60
2019-05-23T08:03:06.191Z,12.80
2019-05-23T08:05:39.368Z,13.60
2019-05-23T08:08:12.497Z,11.20
2019-05-23T08:10:45.638Z,14.00
2019-05-23T08:13:18.823Z,17.60
2019-05-23T08:15:52.231Z,17.20
2019-05-23T08:18:25.200Z,12.20
2019-05-23T08:20:58.107Z,13.20
2019-05-23T08:23:31.114Z,16.20
2019-05-23T08:26:04.101Z,16.20
2019-05-23T08:28:53.375Z,18.20
2019-05-23T08:31:12.224Z,15.20
2019-05-23T08:33:45.343Z,21.40
2019-05-23T08:36:18.267Z,15.20
2019-05-23T08:38:51.424Z,21.80
2019-05-23T08:41:24.572Z,20.20
2019-05-23T08:43:57.536Z,19.40
2019-05-23T08:46:30.474Z,18.00
2019-05-23T08:49:04.109Z,17.00
2019-05-23T08:51:37.346Z,19.40
2019-05-23T08:54:10.491Z,20.60
2019-05-23T08:56:43.647Z,20.80
2019-05-23T08:59:16.752Z,19.40
2019-05-23T09:01:49.985Z,16.00
2019-05-23T09:04:22.929Z,17.00
2019-05-23T09:06:55.925Z,20.40
2019-05-23T09:09:30.402Z,14.60
2019-05-23T09:12:03.649Z,15.40
2019-05-23T09:14:36.602Z,21.80
2019-05-23T09:17:09.992Z,20.00
2019-05-23T09:19:43.171Z,13.20
2019-05-23T09:22:16.548Z,13.00
2019-05-23T09:24:49.627Z,15.80
2019-05-23T09:27:22.951Z,14.40
2019-05-23T09:29:55.998Z,21.00
2019-05-23T09:32:28.997Z,17.20
2019-05-23T09:35:19.223Z,21.40
2019-05-23T09:37:37.133Z,19.60
2019-05-23T09:40:10.800Z,20.20
2019-05-23T09:42:43.942Z,18.80
2019-05-23T09:45:17.385Z,19.00
2019-05-23T09:47:51.612Z,20.20
2019-05-23T09:50:24.794Z,20.40
2019-05-23T09:53:00.459Z,20.00
2019-05-23T09:55:32.495Z,18.00
2019-05-23T09:58:05.451Z,18.40
2019-05-23T10:00:38.416Z,18.40
2019-05-23T10:03:11.695Z,20.00
2019-05-23T10:05:44.737Z,23.00
2019-05-23T10:08:17.728Z,17.20
2019-05-23T10:10:50.655Z,20.60
2019-05-23T10:13:38.506Z,25.40
2019-05-23T10:15:59.161Z,24.00
2019-05-23T10:18:32.240Z,61.60
2019-05-23T10:21:05.385Z,46.40
2019-05-23T10:23:38.300Z,24.80
2019-05-23T10:26:11.345Z,21.80
2019-05-23T10:28:44.186Z,27.20
2019-05-23T10:31:17.281Z,21.80
2019-05-23T10:33:50.241Z,23.60
2019-05-23T10:36:23.087Z,22.60
2019-05-23T10:38:56.111Z,21.20
2019-05-23T10:41:29.575Z,32.80
2019-05-23T10:44:02.627Z,24.40
2019-05-23T10:46:35.558Z,27.20
2019-05-23T10:49:08.489Z,24.20
2019-05-23T10:51:41.415Z,24.20
2019-05-23T10:54:14.321Z,23.80
2019-05-23T10:56:47.249Z,18.40
2019-05-23T10:59:20.224Z,16.60
2019-05-23T11:01:53.408Z,20.60
2019-05-23T11:04:26.540Z,18.20
2019-05-23T11:06:59.865Z,19.00
2019-05-23T11:09:37.730Z,20.60
2019-05-23T11:12:08.143Z,24.60
2019-05-23T11:14:41.334Z,20.40
2019-05-23T11:17:13.301Z,24.00
2019-05-23T11:19:45.262Z,28.40
2019-05-23T11:22:17.442Z,22.60
2019-05-23T11:24:49.392Z,22.40
2019-05-23T11:27:21.960Z,26.40
2019-05-23T11:29:53.900Z,23.00
2019-05-23T11:32:25.824Z,24.60
2019-05-23T11:34:57.677Z,20.60
2019-05-23T11:37:29.516Z,24.00
2019-05-23T11:40:01.538Z,23.40
2019-05-23T11:42:33.505Z,22.20
2019-05-23T11:45:05.732Z,25.20
2019-05-23T11:47:37.574Z,22.20
2019-05-23T11:50:09.462Z,26.40
2019-05-23T11:52:41.395Z,22.60
2019-05-23T11:55:13.357Z,23.80
2019-05-23T11:57:45.298Z,26.60
2019-05-23T12:00:19.654Z,23.80
2019-05-23T12:02:51.605Z,23.20
2019-05-23T12:05:23.586Z,26.80
2019-05-23T12:07:55.544Z,25.20
2019-05-23T12:10:27.436Z,31.80
2019-05-23T12:12:59.269Z,25.40
2019-05-23T12:15:31.509Z,31.00
2019-05-23T12:18:03.416Z,26.20
2019-05-23T12:20:35.292Z,22.80
2019-05-23T12:23:10.833Z,23.60
2019-05-23T12:25:40.862Z,28.80
2019-05-23T12:28:12.793Z,23.60
2019-05-23T12:30:44.856Z,49.40
2019-05-23T12:33:16.716Z,31.20
2019-05-23T12:35:48.686Z,33.60
2019-05-23T12:38:20.639Z,32.60
2019-05-23T12:40:52.520Z,38.60
2019-05-23T12:43:24.415Z,30.80
2019-05-23T12:45:56.293Z,27.20
2019-05-23T12:48:28.120Z,27.80
2019-05-23T12:51:00.431Z,31.20
2019-05-23T12:53:32.267Z,30.20
2019-05-23T12:56:04.655Z,87.60
2019-05-23T12:58:36.548Z,36.60
2019-05-23T13:01:08.780Z,24.80
2019-05-23T13:03:40.957Z,144.00
2019-05-23T13:06:13.124Z,94.40
2019-05-23T13:08:45.020Z,96.20
2019-05-23T13:11:16.947Z,31.20
2019-05-23T13:13:48.794Z,28.20
2019-05-23T13:16:20.646Z,29.60
2019-05-23T13:18:52.585Z,28.80
2019-05-23T13:21:24.419Z,23.60
2019-05-23T13:23:56.452Z,55.80
2019-05-23T13:26:28.327Z,32.00
2019-05-23T13:29:00.268Z,26.00
2019-05-23T13:31:32.405Z,35.00
2019-05-23T13:34:04.311Z,33.40
2019-05-23T13:36:36.238Z,38.40
2019-05-23T13:39:08.780Z,46.00
2019-05-23T13:41:40.703Z,27.00
2019-05-23T13:44:31.845Z,22.20
2019-05-23T13:46:46.558Z,27.00
2019-05-23T13:49:18.771Z,27.20
2019-05-23T13:51:50.891Z,26.00
2019-05-23T13:54:23.069Z,21.60
2019-05-23T13:56:54.911Z,29.60
2019-05-23T13:59:27.047Z,25.40
2019-05-23T14:01:58.980Z,26.40
2019-05-23T14:04:30.931Z,26.00
2019-05-23T14:07:02.771Z,25.80
2019-05-23T14:09:34.592Z,28.00
2019-05-23T14:12:20.789Z,29.20
2019-05-23T14:14:40.157Z,30.80
2019-05-23T14:17:12.236Z,29.00
2019-05-23T14:19:44.190Z,31.60
2019-05-23T14:22:16.045Z,27.20
2019-05-23T14:24:47.978Z,33.80
2019-05-23T14:27:20.163Z,30.20
2019-05-23T14:29:52.029Z,29.20
2019-05-23T14:32:23.972Z,27.00
2019-05-23T14:34:55.887Z,28.40
2019-05-23T14:37:27.724Z,33.20
2019-05-23T14:39:59.551Z,29.20
2019-05-23T14:42:31.533Z,31.80
2019-05-23T14:45:03.894Z,29.00
2019-05-23T14:47:35.723Z,31.20
2019-05-23T14:50:07.716Z,33.20
2019-05-23T14:52:39.940Z,31.00
2019-05-23T14:55:11.883Z,27.80
2019-05-23T14:57:43.731Z,32.60
2019-05-23T15:00:15.833Z,30.20
2019-05-23T15:02:47.679Z,29.60
2019-05-23T15:05:19.580Z,36.60
2019-05-23T15:07:51.539Z,29.20
2019-05-23T15:10:23.390Z,28.60
2019-05-23T15:12:58.098Z,27.20
2019-05-23T15:15:29.942Z,23.60
2019-05-23T15:18:01.935Z,25.20
2019-05-23T15:20:33.843Z,26.20
2019-05-23T15:23:05.699Z,25.00
2019-05-23T15:25:37.532Z,27.60
2019-05-23T15:28:09.520Z,33.00
2019-05-23T15:30:42.347Z,26.40
2019-05-23T15:33:14.309Z,30.20
2019-05-23T15:35:46.171Z,28.40
2019-05-23T15:38:18.044Z,30.80
2019-05-23T15:40:49.920Z,26.00
2019-05-23T15:43:21.784Z,29.20
2019-05-23T15:45:53.678Z,22.20
2019-05-23T15:48:25.553Z,27.40
2019-05-23T15:50:57.403Z,25.00
2019-05-23T15:53:29.298Z,28.60
2019-05-23T15:56:16.826Z,30.80
2019-05-23T15:58:34.860Z,28.00
2019-05-23T16:01:06.759Z,24.60
2019-05-23T16:03:38.599Z,27.00
2019-05-23T16:06:11.056Z,28.80
2019-05-23T16:08:42.928Z,24.60
2019-05-23T16:11:17.412Z,23.00
2019-05-23T16:13:48.573Z,27.00
2019-05-23T16:16:20.407Z,29.20
2019-05-23T16:18:52.358Z,22.40
2019-05-23T16:21:24.283Z,25.60
2019-05-23T16:23:56.220Z,28.00
2019-05-23T16:26:28.419Z,19.00
2019-05-23T16:29:00.363Z,19.60
2019-05-23T16:31:33.222Z,19.80
2019-05-23T16:34:05.467Z,22.00
2019-05-23T16:36:37.447Z,27.40
2019-05-23T16:39:09.300Z,20.80
2019-05-23T16:41:41.229Z,21.40
2019-05-23T16:44:13.177Z,21.00
2019-05-23T16:46:44.996Z,28.20
2019-05-23T16:49:16.853Z,24.00
2019-05-23T16:51:48.739Z,20.40
2019-05-23T16:54:20.687Z,15.00
2019-05-23T16:56:52.587Z,19.00
2019-05-23T16:59:24.431Z,19.80
2019-05-23T17:02:04.970Z,15.00
2019-05-23T17:04:29.904Z,19.40
2019-05-23T17:07:01.729Z,13.80
2019-05-23T17:09:33.647Z,13.80
2019-05-23T17:12:05.533Z,17.20
2019-05-23T17:14:37.457Z,16.20
2019-05-23T17:17:09.580Z,14.20
2019-05-23T17:19:41.515Z,14.40
2019-05-23T17:22:13.339Z,17.40
2019-05-23T17:24:45.175Z,11.60
2019-05-23T17:27:17.002Z,18.60
2019-05-23T17:29:48.892Z,8.40
2019-05-23T17:32:20.995Z,15.40
2019-05-23T17:34:52.827Z,10.60
2019-05-23T17:37:24.653Z,12.60
2019-05-23T17:42:40.520Z,8.60
2019-05-23T17:45:14.284Z,11.60
2019-05-23T17:47:47.341Z,15.60
2019-05-23T17:50:20.448Z,15.20
2019-05-23T17:52:53.548Z,10.40
2019-05-23T17:55:26.602Z,10.80
2019-05-23T17:57:59.735Z,13.00
2019-05-23T18:00:32.636Z,11.00
2019-05-23T18:03:05.904Z,13.00
2019-05-23T18:05:39.324Z,11.80
2019-05-23T18:08:12.374Z,11.60
2019-05-23T18:10:46.252Z,15.60
2019-05-23T18:13:20.266Z,11.60
2019-05-23T18:15:53.461Z,11.80
2019-05-23T18:18:26.376Z,15.20
2019-05-23T18:20:59.526Z,12.60
2019-05-23T18:23:32.883Z,14.20
2019-05-23T18:26:06.767Z,14.00
2019-05-23T18:28:39.858Z,45.60
2019-05-23T18:31:13.891Z,15.40
2019-05-23T18:33:47.260Z,14.20
2019-05-23T18:36:20.213Z,15.00
2019-05-23T18:38:53.144Z,20.40
2019-05-23T18:41:26.256Z,16.40
2019-05-23T18:43:59.765Z,18.00
2019-05-23T18:46:32.630Z,22.60
2019-05-23T18:49:05.592Z,21.40
2019-05-23T18:51:38.422Z,24.80
2019-05-23T18:54:11.398Z,27.00
2019-05-23T18:56:44.343Z,18.60
2019-05-23T18:59:17.365Z,21.60
2019-05-23T19:01:50.330Z,20.60
2019-05-23T19:04:23.386Z,20.80
2019-05-23T19:06:56.322Z,23.00
2019-05-23T19:09:29.266Z,24.00
2019-05-23T19:12:02.673Z,21.60
2019-05-23T19:14:35.517Z,25.20
2019-05-23T19:17:08.364Z,22.80
2019-05-23T19:19:41.294Z,19.80
2019-05-23T19:22:14.318Z,26.00
2019-05-23T19:24:47.312Z,183.50
2019-05-23T19:27:20.243Z,82.40
2019-05-23T19:29:53.513Z,41.20
2019-05-23T19:32:26.425Z,24.80
2019-05-23T19:34:59.375Z,26.40
2019-05-23T19:37:32.468Z,30.00
2019-05-23T19:40:05.702Z,24.20
2019-05-23T19:42:38.567Z,23.80
2019-05-23T19:45:11.818Z,26.20
2019-05-23T19:47:44.740Z,25.00
2019-05-23T19:50:17.860Z,22.40
2019-05-23T19:52:50.883Z,23.20
2019-05-23T19:55:24.240Z,25.60
2019-05-23T19:57:57.251Z,20.00
2019-05-23T20:00:30.394Z,23.60
2019-05-23T20:03:04.248Z,28.20
2019-05-23T20:05:37.600Z,26.40
2019-05-23T20:08:11.352Z,27.20
2019-05-23T20:10:45.406Z,27.00
2019-05-23T20:13:19.051Z,24.20
2019-05-23T20:15:52.207Z,16.80
2019-05-23T20:18:25.389Z,61.00
2019-05-23T20:20:58.598Z,47.80
2019-05-23T20:23:31.877Z,46.60
2019-05-23T20:26:07.915Z,34.60
2019-05-23T20:28:40.417Z,32.40
2019-05-23T20:31:13.519Z,28.20
2019-05-23T20:33:46.604Z,26.20
2019-05-23T20:36:19.745Z,26.60
2019-05-23T21:22:26.245Z,32.80
2019-05-23T21:24:59.203Z,34.60
2019-05-23T21:27:32.235Z,31.40
2019-05-23T21:30:05.581Z,31.40
2019-05-23T21:32:38.703Z,40.00
2019-05-23T21:35:11.647Z,35.00
2019-05-23T21:37:45.015Z,38.20
2019-05-23T21:40:31.400Z,40.20
2019-05-23T21:43:04.739Z,33.80
2019-05-23T21:45:37.719Z,38.20
2019-05-23T21:48:10.995Z,33.60
2019-05-23T21:50:44.046Z,42.80
2019-05-23T21:53:16.957Z,35.20
2019-05-23T21:55:49.947Z,44.80
2019-05-23T21:58:23.141Z,49.60
2019-05-23T22:01:08.418Z,47.60
2019-05-23T22:03:41.351Z,41.20
2019-05-23T22:06:14.369Z,43.60
2019-05-23T22:08:47.787Z,37.40
2019-05-23T22:11:20.792Z,37.60
2019-05-23T22:13:53.835Z,44.80
2019-05-23T22:16:26.781Z,47.60
2019-05-23T22:18:59.802Z,44.40
2019-05-23T22:21:33.017Z,44.40
2019-05-23T22:24:05.967Z,63.25
2019-05-23T22:26:38.994Z,77.75
2019-05-23T22:29:11.960Z,46.00
2019-05-23T22:31:45.046Z,35.80
2019-05-23T22:34:18.012Z,44.00
2019-05-23T22:36:51.041Z,38.60
2019-05-23T22:39:24.121Z,40.60
2019-05-23T22:41:57.116Z,42.40
2019-05-23T22:44:30.114Z,38.00
2019-05-23T22:47:03.185Z,41.60
2019-05-23T22:49:36.253Z,42.40
2019-05-23T22:52:09.265Z,40.00
2019-05-23T22:54:42.564Z,41.20
2019-05-23T22:57:15.618Z,53.00
2019-05-23T22:59:48.625Z,50.00
2019-05-23T23:02:21.583Z,50.20
2019-05-23T23:04:54.516Z,45.40
2019-05-23T23:07:27.957Z,42.80
2019-05-23T23:10:01.137Z,48.60
2019-05-23T23:12:34.231Z,52.00
2019-05-23T23:15:07.407Z,55.40
2019-05-23T23:17:40.361Z,51.40
2019-05-23T23:20:13.601Z,52.80
2019-05-23T23:22:46.849Z,56.20
2019-05-23T23:25:20.113Z,52.40
2019-05-23T23:27:53.127Z,57.80
2019-05-23T23:30:26.142Z,50.00
2019-05-23T23:32:59.079Z,51.20
2019-05-23T23:35:32.275Z,49.80
2019-05-23T23:38:05.412Z,54.80
2019-05-23T23:40:38.488Z,50.00
2019-05-23T23:43:11.411Z,42.00
2019-05-23T23:45:44.430Z,45.80
2019-05-23T23:48:17.343Z,44.40
2019-05-23T23:50:50.322Z,42.20
2019-05-23T23:53:23.463Z,40.80
2019-05-23T23:55:57.601Z,49.40
2019-05-23T23:58:30.652Z,49.80
